Time;durP1;ratioP1;P1;durP2;ratioP2;P2;SDS_P1;SDS_P2;PMS_P1;PMS_P2;Temp;Humidity;BMP_temperature;BMP_pressure;BME280_temperature;BME280_humidity;BME280_pressure;Samples;Min_cycle;Max_cycle;Signal;HPM_P1;HPM_P2
2021/10/08 00:03:00;;;;;;;3.50;0.35;;;;;;;14.53;100.00;100957.94;6339852;22;20025;-43
2021/10/08 00:06:03;;;;;;;0.30;0.30;;;;;;;14.40;100.00;100960.97;6340083;22;20025;-43
2021/10/08 00:09:06;;;;;;;0.32;0.30;;;;;;;14.42;100.00;100964.06;6339756;22;20079;-43
2021/10/08 00:12:09;;;;;;;0.85;0.35;;;;;;;14.38;100.00;100975.44;6339634;22;20195;-43
2021/10/08 00:15:13;;;;;;;0.70;0.32;;;;;;;14.35;100.00;100972.81;6339859;22;20466;-43
2021/10/08 00:18:17;;;;;;;4.97;0.90;;;;;;;14.33;100.00;100978.13;6339267;22;20505;-43
2021/10/08 00:21:20;;;;;;;5.15;0.50;;;;;;;14.26;100.00;100962.38;6339121;22;20022;-43
2021/10/08 00:24:23;;;;;;;0.20;0.20;;;;;;;14.18;100.00;100972.41;6338935;22;20022;-43
2021/10/08 00:27:26;;;;;;;1.35;0.47;;;;;;;14.13;100.00;100975.06;6339455;22;20083;-44
2021/10/08 00:30:29;;;;;;;0.30;0.30;;;;;;;14.13;100.00;100966.66;6339049;22;20080;-43
2021/10/08 00:33:32;;;;;;;0.60;0.40;;;;;;;14.06;100.00;100973.38;6339309;22;20072;-43
2021/10/08 00:36:35;;;;;;;0.70;0.25;;;;;;;13.90;100.00;100967.34;6339440;22;20071;-43
2021/10/08 00:39:38;;;;;;;1.33;0.30;;;;;;;13.83;100.00;100967.69;6339455;22;20022;-44
2021/10/08 00:42:45;;;;;;;2.63;0.57;;;;;;;13.94;100.00;100973.56;6340016;22;20064;-43
2021/10/08 00:45:50;;;;;;;0.88;0.70;;;;;;;14.01;100.00;100973.25;6338999;22;20041;-43
2021/10/08 00:48:53;;;;;;;1.05;0.30;;;;;;;14.08;100.00;100978.47;6338556;22;20025;-43
2021/10/08 00:51:57;;;;;;;0.93;0.35;;;;;;;14.16;100.00;100974.13;6339279;22;20072;-43
2021/10/08 00:54:59;;;;;;;2.78;0.85;;;;;;;14.17;100.00;100986.84;6339750;22;20041;-43
2021/10/08 00:58:03;;;;;;;0.25;0.25;;;;;;;14.21;100.00;100987.47;6339541;22;20469;-43
2021/10/08 01:01:07;;;;;;;0.55;0.15;;;;;;;14.33;100.00;100986.53;6339220;22;20068;-44
2021/10/08 01:04:11;;;;;;;1.45;0.40;;;;;;;14.24;100.00;100989.34;6339359;22;20339;-43
2021/10/08 01:07:14;;;;;;;7.53;0.57;;;;;;;14.27;100.00;100994.75;6339466;22;20141;-43
2021/10/08 01:10:20;;;;;;;0.38;0.30;;;;;;;14.24;100.00;100989.34;6339035;22;20079;-44
2021/10/08 01:13:23;;;;;;;0.93;0.50;;;;;;;14.20;100.00;100991.53;6339563;22;20026;-44
2021/10/08 01:16:26;;;;;;;8.25;1.10;;;;;;;13.80;100.00;100993.81;6338909;22;20029;-43
2021/10/08 01:19:29;;;;;;;3.25;0.70;;;;;;;14.06;100.00;100992.19;6307981;22;20532;-43
2021/10/08 01:22:31;;;;;;;2.50;0.68;;;;;;;14.05;100.00;100997.03;6306775;22;20072;-43
2021/10/08 01:25:37;;;;;;;1.00;0.25;;;;;;;14.02;100.00;100994.38;6307940;22;20072;-43
2021/10/08 01:28:40;;;;;;;2.47;0.57;;;;;;;14.01;100.00;100995.66;6307399;22;20022;-43
2021/10/08 01:31:42;;;;;;;1.55;0.60;;;;;;;13.89;100.00;100997.38;6307115;22;20057;-44
2021/10/08 01:34:46;;;;;;;12.90;2.03;;;;;;;13.93;100.00;100994.41;6307394;22;20025;-43
2021/10/08 01:37:49;;;;;;;0.98;0.82;;;;;;;13.87;100.00;100997.06;6308198;22;20061;-44
2021/10/08 01:40:52;;;;;;;1.95;0.93;;;;;;;13.99;100.00;100998.91;6307599;22;20081;-43
2021/10/08 01:43:56;;;;;;;4.10;0.60;;;;;;;13.58;100.00;100997.59;6307813;22;20027;-44
2021/10/08 01:46:58;;;;;;;0.63;0.20;;;;;;;13.75;100.00;100997.25;6307526;22;20022;-43
2021/10/08 01:50:02;;;;;;;3.30;0.45;;;;;;;13.71;100.00;101005.06;6307877;22;20026;-43
2021/10/08 01:53:09;;;;;;;0.20;0.20;;;;;;;13.59;100.00;100999.16;6307077;22;20396;-43
2021/10/08 01:56:12;;;;;;;1.00;0.50;;;;;;;13.65;100.00;101002.88;6307806;22;20534;-43
2021/10/08 01:59:15;;;;;;;1.00;0.28;;;;;;;13.63;100.00;101005.38;6307260;22;20017;-43
2021/10/08 02:02:18;;;;;;;0.77;0.50;;;;;;;13.54;100.00;101007.38;6307546;22;20073;-44
2021/10/08 02:05:21;;;;;;;7.13;1.33;;;;;;;13.56;100.00;101011.28;6307401;22;20022;-44
2021/10/08 02:08:25;;;;;;;0.70;0.50;;;;;;;13.51;100.00;101014.69;6307616;22;20061;-44
2021/10/08 02:11:27;;;;;;;1.63;1.08;;;;;;;13.56;100.00;101007.69;6307018;22;20046;-43
2021/10/08 02:14:30;;;;;;;4.07;1.23;;;;;;;13.50;100.00;101009.56;6307421;22;20030;-43
2021/10/08 02:17:33;;;;;;;0.80;0.47;;;;;;;13.56;100.00;101011.28;6313223;22;20508;-43
2021/10/08 02:20:36;;;;;;;0.50;0.50;;;;;;;13.58;100.00;101022.78;6338405;22;20053;-43
2021/10/08 02:23:40;;;;;;;0.80;0.65;;;;;;;13.52;100.00;101016.25;6338122;22;20101;-43
2021/10/08 02:26:43;;;;;;;1.27;0.70;;;;;;;13.59;100.00;101021.56;6338141;22;20026;-44
2021/10/08 02:29:46;;;;;;;1.48;0.60;;;;;;;13.51;100.00;101025.88;6338205;22;20025;-44
2021/10/08 02:32:49;;;;;;;1.48;0.88;;;;;;;13.46;100.00;101020.94;6338321;22;20041;-43
2021/10/08 02:35:52;;;;;;;1.10;0.68;;;;;;;13.44;100.00;101020.63;6338430;22;20447;-43
2021/10/08 02:38:55;;;;;;;1.25;0.50;;;;;;;13.54;100.00;101019.38;6338813;22;20332;-44
2021/10/08 02:42:00;;;;;;;0.45;0.40;;;;;;;13.60;100.00;101023.09;6337850;22;20025;-43
2021/10/08 02:45:04;;;;;;;2.45;0.77;;;;;;;13.58;100.00;101019.19;6338511;22;20061;-43
2021/10/08 02:48:07;;;;;;;0.32;0.32;;;;;;;13.50;100.00;101027.16;6338528;22;20033;-44
2021/10/08 02:51:10;;;;;;;5.20;0.63;;;;;;;13.48;100.00;101021.25;6338721;22;20029;-43
2021/10/08 02:54:13;;;;;;;0.38;0.10;;;;;;;13.57;100.00;101017.66;6338375;22;20021;-43
2021/10/08 02:57:16;;;;;;;1.05;0.35;;;;;;;13.64;100.00;101029.31;6338326;22;20119;-43
2021/10/08 03:00:19;;;;;;;1.70;0.60;;;;;;;13.63;100.00;101024.19;6338058;22;20068;-43
2021/10/08 03:03:22;;;;;;;1.30;0.70;;;;;;;13.68;100.00;101024.34;6338180;22;20343;-43
2021/10/08 03:06:25;;;;;;;2.88;0.77;;;;;;;13.74;100.00;101029.28;6338417;22;20025;-44
2021/10/08 03:09:28;;;;;;;1.77;0.35;;;;;;;13.67;100.00;101025.56;6338249;22;20041;-44
2021/10/08 03:12:31;;;;;;;1.33;0.60;;;;;;;13.65;100.00;101025.28;6337808;22;20025;-44
2021/10/08 03:15:34;;;;;;;0.47;0.20;;;;;;;13.69;100.00;101023.09;6338067;22;20026;-43
2021/10/08 03:18:37;;;;;;;1.27;0.70;;;;;;;13.73;100.00;101027.75;6337756;22;20033;-43
2021/10/08 03:21:39;;;;;;;0.15;0.15;;;;;;;13.67;100.00;101033.19;6337860;22;20024;-44
2021/10/08 03:24:43;;;;;;;0.77;0.65;;;;;;;13.60;100.00;101028.69;6338191;22;20037;-43
2021/10/08 03:27:46;;;;;;;2.28;0.43;;;;;;;13.49;100.00;101033.97;6337962;22;20029;-43
2021/10/08 03:30:49;;;;;;;0.73;0.50;;;;;;;13.33;100.00;101028.72;6313623;22;20068;-44
2021/10/08 03:33:52;;;;;;;1.35;0.40;;;;;;;13.39;100.00;101035.22;6300504;22;20022;-44
2021/10/08 03:36:59;;;;;;;1.67;0.40;;;;;;;13.34;100.00;101037.88;6294870;22;20022;-44
2021/10/08 03:40:03;;;;;;;2.38;0.30;;;;;;;13.29;100.00;101036.47;6268915;22;20348;-46
2021/10/08 03:43:06;;;;;;;1.13;0.50;;;;;;;13.23;100.00;101040.38;6283904;22;20017;-47
2021/10/08 03:46:10;;;;;;;1.55;0.93;;;;;;;13.14;100.00;101040.34;6284158;22;20022;-46
2021/10/08 03:49:15;;;;;;;1.83;0.68;;;;;;;13.06;100.00;101031.47;6284140;22;20111;-46
2021/10/08 03:52:19;;;;;;;6.35;0.82;;;;;;;12.96;100.00;101035.47;6289097;22;20021;-46
2021/10/08 03:55:21;;;;;;;2.60;0.98;;;;;;;12.94;100.00;101035.16;6297820;22;20082;-46
2021/10/08 03:58:24;;;;;;;2.10;0.40;;;;;;;12.86;100.00;101036.69;6298760;22;20021;-46
2021/10/08 04:01:28;;;;;;;1.15;0.50;;;;;;;12.79;100.00;101037.00;6297627;22;20018;-46
2021/10/08 04:04:31;;;;;;;2.05;0.65;;;;;;;12.78;100.00;101035.41;6297549;22;20017;-46
2021/10/08 04:07:34;;;;;;;0.40;0.40;;;;;;;12.71;100.00;101036.50;6298197;22;20140;-46
2021/10/08 04:10:38;;;;;;;1.80;0.80;;;;;;;12.71;100.00;101038.53;6297926;22;20112;-46
2021/10/08 04:13:40;;;;;;;0.52;0.50;;;;;;;12.72;100.00;101049.22;6298823;22;20075;-46
2021/10/08 04:16:43;;;;;;;0.22;0.20;;;;;;;12.73;100.00;101050.03;6315013;22;20071;-47
2021/10/08 04:19:46;;;;;;;1.65;0.80;;;;;;;12.81;100.00;101045.69;6338087;22;20266;-47
2021/10/08 04:22:49;;;;;;;0.82;0.40;;;;;;;12.93;100.00;101048.34;6338049;22;20115;-47
2021/10/08 04:25:52;;;;;;;0.55;0.20;;;;;;;12.97;100.00;101048.22;6339843;22;20025;-47
2021/10/08 04:28:54;;;;;;;4.78;1.55;;;;;;;13.04;100.00;101033.91;6339681;22;20091;-47
2021/10/08 04:31:57;;;;;;;2.72;0.52;;;;;;;13.07;100.00;101041.44;6340001;22;20086;-47
2021/10/08 04:35:00;;;;;;;0.85;0.60;;;;;;;13.06;100.00;101039.84;6339613;22;20442;-47
2021/10/08 04:38:03;;;;;;;4.22;0.75;;;;;;;13.11;100.00;101047.63;6339946;22;20068;-47
2021/10/08 04:41:06;;;;;;;4.03;1.30;;;;;;;13.13;100.00;101045.16;6340004;22;20018;-47
2021/10/08 04:44:08;;;;;;;3.20;0.65;;;;;;;13.20;100.00;101050.47;6339797;22;20064;-47
2021/10/08 04:47:12;;;;;;;5.55;0.93;;;;;;;13.19;100.00;101045.34;6339546;22;20025;-48
2021/10/08 04:50:17;;;;;;;1.17;0.65;;;;;;;13.22;100.00;101050.75;6339669;22;20347;-47
2021/10/08 04:53:25;;;;;;;4.38;0.55;;;;;;;13.14;100.00;101049.53;6339874;22;20041;-47
2021/10/08 04:56:32;;;;;;;1.30;0.55;;;;;;;13.18;100.00;101050.16;6339720;22;20022;-47
2021/10/08 04:59:36;;;;;;;7.35;0.85;;;;;;;13.15;100.00;101042.66;6339548;22;20343;-47
2021/10/08 05:02:39;;;;;;;4.57;0.77;;;;;;;13.15;100.00;101048.25;6339627;22;20429;-47
2021/10/08 05:05:53;;;;;;;1.23;1.02;;;;;;;13.15;100.00;101056.66;6339566;22;20026;-47
2021/10/08 05:08:56;;;;;;;3.63;0.50;;;;;;;13.14;100.00;101052.31;6339550;22;20492;-48
2021/10/08 05:11:59;;;;;;;5.78;2.05;;;;;;;13.14;100.00;101055.13;6339992;22;20022;-47
2021/10/08 05:15:02;;;;;;;4.47;1.63;;;;;;;13.18;100.00;101052.94;6339679;22;20025;-47
2021/10/08 05:18:05;;;;;;;1.67;0.40;;;;;;;13.23;100.00;101052.31;6339166;22;20029;-47
2021/10/08 05:21:08;;;;;;;1.55;0.30;;;;;;;13.30;100.00;101056.81;6339378;22;20018;-47
2021/10/08 05:24:11;;;;;;;2.28;0.95;;;;;;;13.36;100.00;101064.13;6339636;22;20038;-47
2021/10/08 05:27:14;;;;;;;5.47;1.30;;;;;;;13.45;100.00;101055.75;6339609;22;20072;-47
2021/10/08 05:30:17;;;;;;;2.70;0.68;;;;;;;13.50;100.00;101069.13;6339279;22;20045;-47
2021/10/08 05:33:20;;;;;;;3.53;1.10;;;;;;;13.47;100.00;101064.44;6339284;22;20328;-47
2021/10/08 05:36:24;;;;;;;2.15;0.55;;;;;;;13.57;100.00;101071.63;6339036;22;20116;-47
2021/10/08 05:39:26;;;;;;;1.05;0.30;;;;;;;13.64;100.00;101071.28;6338674;22;20094;-47
2021/10/08 05:42:30;;;;;;;3.50;1.00;;;;;;;13.58;100.00;101073.16;6338985;22;20068;-47
2021/10/08 05:45:33;;;;;;;3.85;0.90;;;;;;;13.69;100.00;101076.28;6339128;22;20071;-47
2021/10/08 05:48:36;;;;;;;5.07;0.65;;;;;;;13.58;100.00;101081.56;6339342;22;20025;-47
2021/10/08 05:51:39;;;;;;;1.95;1.00;;;;;;;13.75;100.00;101072.84;6339091;22;20021;-47
2021/10/08 05:54:41;;;;;;;1.75;0.30;;;;;;;13.88;100.00;101065.06;6339137;22;20076;-47
2021/10/08 05:57:44;;;;;;;1.02;0.75;;;;;;;13.93;100.00;101070.00;6339308;22;20347;-47
2021/10/08 06:00:47;;;;;;;7.57;1.98;;;;;;;13.67;100.00;101078.75;6339028;22;20025;-47
2021/10/08 06:03:51;;;;;;;8.57;1.17;;;;;;;13.67;100.00;101078.75;6339094;22;20026;-47
2021/10/08 06:06:54;;;;;;;2.38;0.98;;;;;;;13.88;100.00;101084.66;6339373;22;20029;-47
2021/10/08 06:09:57;;;;;;;5.53;1.13;;;;;;;13.87;100.00;101083.09;6338899;22;20021;-47
2021/10/08 06:13:00;;;;;;;2.92;0.98;;;;;;;13.62;100.00;101087.78;6338893;22;20037;-47
2021/10/08 06:16:04;;;;;;;3.60;0.80;;;;;;;13.71;100.00;101097.44;6338982;22;20083;-49
2021/10/08 06:19:07;;;;;;;3.03;0.93;;;;;;;13.97;100.00;101095.88;6338847;22;20478;-47
2021/10/08 06:22:10;;;;;;;3.05;0.50;;;;;;;14.00;100.00;101097.72;6338832;22;20025;-47
2021/10/08 06:25:13;;;;;;;7.22;1.67;;;;;;;13.92;100.00;101107.69;6339173;22;20021;-48
2021/10/08 06:28:17;;;;;;;2.47;1.13;;;;;;;13.88;100.00;101104.28;6338779;22;20030;-48
2021/10/08 06:31:19;;;;;;;3.08;1.38;;;;;;;14.15;100.00;101095.81;6338037;22;20512;-47
2021/10/08 06:34:22;;;;;;;3.30;0.95;;;;;;;14.22;100.00;101095.50;6338227;22;20022;-48
2021/10/08 06:37:26;;;;;;;2.17;0.77;;;;;;;14.36;100.00;101100.47;6338702;22;20389;-47
2021/10/08 06:40:29;;;;;;;5.25;0.57;;;;;;;14.41;100.00;101097.81;6319349;22;20504;-48
2021/10/08 06:43:33;;;;;;;5.82;1.23;;;;;;;14.47;100.00;101100.00;6337884;22;20104;-48
2021/10/08 06:46:36;;;;;;;3.03;1.13;;;;;;;14.50;100.00;101105.41;6337382;22;20030;-47
2021/10/08 06:49:39;;;;;;;11.20;0.63;;;;;;;14.47;100.00;101105.59;6338282;22;20060;-47
2021/10/08 06:52:42;;;;;;;8.55;1.33;;;;;;;14.54;100.00;101111.63;6338175;22;20128;-47
2021/10/08 06:55:47;;;;;;;3.60;1.23;;;;;;;14.26;100.00;101122.09;6338242;22;20033;-48
2021/10/08 06:58:49;;;;;;;2.50;1.02;;;;;;;14.38;100.00;101120.38;6338348;22;20026;-47
2021/10/08 07:01:53;;;;;;;4.43;0.88;;;;;;;14.64;100.00;101124.34;6338568;22;20389;-48
2021/10/08 07:04:57;;;;;;;1.77;0.38;;;;;;;14.70;100.00;101125.28;6338359;22;20021;-48
2021/10/08 07:08:01;;;;;;;2.17;0.90;;;;;;;14.58;100.00;101123.44;6338192;22;20331;-48
2021/10/08 07:11:04;;;;;;;3.10;0.40;;;;;;;14.60;100.00;101129.34;6338021;22;20045;-48
2021/10/08 07:14:07;;;;;;;3.80;1.27;;;;;;;14.62;100.00;101132.47;6338408;22;20347;-48
2021/10/08 07:17:11;;;;;;;5.40;1.15;;;;;;;14.79;100.00;101130.09;6337040;22;20026;-48
2021/10/08 07:20:16;;;;;;;7.95;1.80;;;;;;;15.02;100.00;101132.16;6319176;22;20075;-49
2021/10/08 07:23:19;;;;;;;8.25;1.27;;;;;;;15.14;100.00;101137.53;6337942;22;20061;-48
2021/10/08 07:26:22;;;;;;;3.58;1.60;;;;;;;15.05;100.00;101143.19;6337901;22;20072;-48
2021/10/08 07:29:25;;;;;;;4.75;2.00;;;;;;;15.01;100.00;101145.41;6337693;22;20091;-48
2021/10/08 07:32:28;;;;;;;2.05;1.33;;;;;;;15.01;100.00;101145.41;6338298;22;20025;-48
2021/10/08 07:35:31;;;;;;;14.52;1.70;;;;;;;15.09;100.00;101152.19;6337465;22;20072;-48
2021/10/08 07:38:34;;;;;;;8.73;1.85;;;;;;;15.07;100.00;101154.72;6337918;22;20119;-48
2021/10/08 07:41:37;;;;;;;4.97;1.50;;;;;;;15.12;100.00;101156.88;6337733;22;20022;-49
2021/10/08 07:44:41;;;;;;;5.95;1.25;;;;;;;15.16;100.00;101163.09;6338315;22;20021;-49
2021/10/08 07:47:44;;;;;;;7.40;2.13;;;;;;;15.24;100.00;101163.53;6337962;22;20026;-48
2021/10/08 07:50:47;;;;;;;4.63;1.02;;;;;;;15.38;100.00;101173.25;6338490;22;20057;-47
2021/10/08 07:53:50;;;;;;;6.10;0.93;;;;;;;15.46;100.00;101168.88;6338259;22;20022;-47
2021/10/08 07:56:53;;;;;;;6.40;1.08;;;;;;;15.50;100.00;101175.88;6338486;22;20026;-47
2021/10/08 07:59:56;;;;;;;5.20;1.48;;;;;;;15.44;100.00;101177.78;6340000;22;20021;-48
2021/10/08 08:02:58;;;;;;;1.85;1.20;;;;;;;15.53;100.00;101182.56;6339997;22;20069;-47
2021/10/08 08:06:01;;;;;;;6.13;1.27;;;;;;;15.50;100.00;101180.72;6340103;22;20038;-47
2021/10/08 08:09:05;;;;;;;6.60;1.13;;;;;;;15.61;100.00;101187.38;6339940;22;20359;-49
2021/10/08 08:12:08;;;;;;;1.25;0.73;;;;;;;15.67;100.00;101184.66;6339819;22;20030;-48
2021/10/08 08:15:11;;;;;;;7.53;1.77;;;;;;;15.72;100.00;101192.44;6340074;22;20105;-47
2021/10/08 08:18:14;;;;;;;6.00;1.48;;;;;;;15.82;100.00;101196.72;6339918;22;20026;-48
2021/10/08 08:21:18;;;;;;;4.25;1.23;;;;;;;15.89;100.00;101188.72;6339730;22;20026;-47
2021/10/08 08:24:20;;;;;;;4.28;1.20;;;;;;;15.86;100.00;101198.09;6339735;22;20061;-48
2021/10/08 08:27:23;;;;;;;3.95;1.27;;;;;;;15.92;100.00;101189.78;6339925;22;20022;-47
2021/10/08 08:30:26;;;;;;;3.55;1.00;;;;;;;15.95;100.00;101191.63;6339711;22;20176;-48
2021/10/08 08:33:30;;;;;;;2.30;0.90;;;;;;;15.89;100.00;101201.97;6339837;22;20084;-48
2021/10/08 08:36:33;;;;;;;8.35;1.55;;;;;;;16.17;100.00;101205.34;6338999;22;20459;-47
2021/10/08 08:39:38;;;;;;;4.68;1.48;;;;;;;16.30;100.00;101201.03;6339432;22;20339;-47
2021/10/08 08:42:42;;;;;;;3.25;1.52;;;;;;;16.41;100.00;101201.22;6339503;22;20026;-47
2021/10/08 08:45:44;;;;;;;3.97;1.50;;;;;;;16.49;100.00;101205.19;6339601;22;20022;-47
2021/10/08 08:48:48;;;;;;;9.93;1.25;;;;;;;16.57;100.00;101214.84;6339771;22;20087;-47
2021/10/08 08:51:52;;;;;;;5.28;1.90;;;;;;;16.62;100.00;101207.75;6339501;22;20067;-47
2021/10/08 08:54:55;;;;;;;4.55;1.33;;;;;;;16.72;100.00;101205.63;6339713;22;20373;-47
2021/10/08 08:57:58;;;;;;;7.35;1.98;;;;;;;16.71;100.00;101215.31;6339818;22;20057;-47
2021/10/08 09:01:03;;;;;;;6.00;1.13;;;;;;;16.84;100.00;101207.38;6339612;22;20511;-48
2021/10/08 09:04:08;;;;;;;4.85;1.75;;;;;;;17.04;100.00;101215.91;6339367;22;20022;-47
2021/10/08 09:07:14;;;;;;;3.58;1.10;;;;;;;17.01;100.00;101212.00;6339667;22;20025;-47
2021/10/08 09:10:26;;;;;;;4.70;1.27;;;;;;;17.12;100.00;101217.03;6338612;22;20054;-47
2021/10/08 09:13:29;;;;;;;3.55;1.45;;;;;;;16.36;100.00;101230.00;6339254;22;20075;-47
2021/10/08 09:16:32;;;;;;;5.95;1.83;;;;;;;16.58;100.00;101235.31;6339209;22;20503;-47
2021/10/08 09:20:00;;;;;;;5.80;1.50;;;;;;;16.84;100.00;101229.88;6339431;22;20030;-47
2021/10/08 09:23:17;;;;;;;2.63;0.93;;;;;;;17.18;100.00;101221.50;6339499;22;20020;-50
2021/10/08 09:26:25;;;;;;;3.80;0.35;;;;;;;17.31;100.00;101229.63;6339524;22;20076;-48
2021/10/08 09:29:29;;;;;;;4.13;1.08;;;;;;;17.40;100.00;101221.06;6339136;22;20114;-48
2021/10/08 09:32:40;;;;;;;1.75;0.57;;;;;;;17.32;100.00;101219.91;6339244;22;20496;-48
2021/10/08 09:35:44;;;;;;;2.28;1.02;;;;;;;17.38;100.00;101226.41;6339017;22;20371;-48
2021/10/08 09:38:48;;;;;;;2.13;0.50;;;;;;;17.47;100.00;101226.28;6320721;22;20476;-48
2021/10/08 09:42:00;;;;;;;4.60;0.55;;;;;;;17.45;100.00;101226.00;6339223;22;20079;-48
2021/10/08 09:45:05;;;;;;;1.88;0.50;;;;;;;17.60;100.00;101228.78;6339043;22;20079;-48
2021/10/08 09:48:08;;;;;;;4.03;0.80;;;;;;;17.57;100.00;101224.91;6320426;22;20026;-48
2021/10/08 09:51:16;;;;;;;5.47;1.40;;;;;;;17.48;100.00;101222.19;6339016;22;20098;-48
2021/10/08 09:54:20;;;;;;;4.20;1.25;;;;;;;17.56;100.00;101223.38;6338881;22;20025;-48
2021/10/08 09:57:24;;;;;;;5.18;1.25;;;;;;;17.63;100.00;101225.75;6338332;22;20026;-48
2021/10/08 10:00:44;;;;;;;5.32;0.85;;;;;;;17.72;100.00;101225.63;6338958;22;20079;-48
2021/10/08 10:03:52;;;;;;;4.18;0.90;;;;;;;17.81;100.00;101233.19;6338776;22;20445;-48
2021/10/08 10:06:55;;;;;;;5.45;1.60;;;;;;;17.94;100.00;101240.03;6339017;22;20025;-48
2021/10/08 10:09:58;;;;;;;3.10;0.68;;;;;;;18.04;100.00;101240.69;6338661;22;20030;-48
2021/10/08 10:13:04;;;;;;;3.50;1.15;;;;;;;18.03;100.00;101241.94;6339141;22;20053;-48
2021/10/08 10:16:07;;;;;;;2.60;0.70;;;;;;;17.95;100.00;101244.38;6338587;22;20103;-48
2021/10/08 10:19:10;;;;;;;6.57;2.13;;;;;;;17.94;100.00;101247.69;6338856;22;20076;-48
2021/10/08 10:22:16;;;;;;;5.57;1.38;;;;;;;17.97;100.00;101253.16;6338528;22;20068;-47
2021/10/08 10:25:20;;;;;;;6.47;1.23;;;;;;;18.05;100.00;101245.03;6338418;22;20025;-47
2021/10/08 10:28:23;;;;;;;5.15;1.55;;;;;;;18.03;100.00;101250.38;6338564;22;20520;-47
2021/10/08 10:31:27;;;;;;;3.83;0.93;;;;;;;18.05;100.00;101247.84;6338712;22;20497;-47
2021/10/08 10:34:34;;;;;;;2.70;0.88;;;;;;;18.18;100.00;101249.06;6338397;22;20041;-47
2021/10/08 10:37:42;;;;;;;6.72;2.25;;;;;;;18.31;100.00;101253.53;6338178;22;20437;-47
2021/10/08 10:40:44;;;;;;;4.97;1.83;;;;;;;18.40;100.00;101242.09;6337961;22;20022;-47
2021/10/08 10:43:54;;;;;;;5.07;1.10;;;;;;;18.65;100.00;101242.16;6338549;22;20029;-47
2021/10/08 10:47:19;;;;;;;6.55;1.23;;;;;;;18.88;100.00;101240.31;6338235;22;20057;-47
2021/10/08 10:50:28;;;;;;;3.90;1.58;;;;;;;19.12;100.00;101235.16;6338559;22;20127;-47
2021/10/08 10:53:50;;;;;;;4.50;0.82;;;;;;;19.22;100.00;101232.88;6338383;22;20515;-47
2021/10/08 10:56:52;;;;;;;6.97;1.60;;;;;;;19.08;100.00;101231.75;6338483;22;20026;-47
2021/10/08 11:00:13;;;;;;;3.70;1.27;;;;;;;19.02;100.00;101233.75;6338308;22;20018;-47
2021/10/08 11:03:30;;;;;;;8.55;2.33;;;;;;;19.02;100.00;101228.09;6338188;22;20050;-47
2021/10/08 11:07:11;;;;;;;7.78;2.42;;;;;;;19.00;100.00;101236.31;6338335;22;20083;-47
2021/10/08 11:10:14;;;;;;;6.75;1.85;;;;;;;19.01;100.00;101235.03;6338292;22;20541;-47
2021/10/08 11:13:32;;;;;;;17.17;3.13;;;;;;;18.93;100.00;101236.75;6338580;22;20419;-47
2021/10/08 11:16:35;;;;;;;6.13;2.28;;;;;;;18.94;100.00;101238.31;6337808;22;20068;-47
2021/10/08 11:19:40;;;;;;;5.57;1.58;;;;;;;18.72;100.00;101233.25;6338607;22;20026;-47
2021/10/08 11:22:44;;;;;;;2.08;1.17;;;;;;;18.75;100.00;101242.75;6338030;22;20071;-47
2021/10/08 11:25:53;;;;;;;6.38;1.60;;;;;;;18.88;100.00;101234.69;6337524;22;20071;-47
2021/10/08 11:28:57;;;;;;;6.80;1.92;;;;;;;18.90;100.00;101237.78;6337800;22;20142;-47
2021/10/08 11:32:04;;;;;;;5.10;1.73;;;;;;;18.64;100.00;101243.44;6337235;22;20041;-47
2021/10/08 11:35:07;;;;;;;11.23;2.90;;;;;;;18.50;100.00;101227.38;6337465;22;20026;-47
2021/10/08 11:38:10;;;;;;;5.60;1.27;;;;;;;18.71;100.00;101225.28;6319094;22;20026;-47
2021/10/08 11:41:19;;;;;;;5.75;1.95;;;;;;;18.76;100.00;101228.16;6337847;22;20446;-47
2021/10/08 11:44:28;;;;;;;5.70;1.88;;;;;;;18.81;100.00;101224.59;6338289;22;20508;-47
2021/10/08 11:47:42;;;;;;;7.75;1.95;;;;;;;18.95;100.00;101236.28;6337918;22;20025;-47
2021/10/08 11:51:03;;;;;;;6.32;1.38;;;;;;;18.88;100.00;101235.44;6338231;22;20458;-47
2021/10/08 11:54:07;;;;;;;9.55;2.65;;;;;;;18.82;100.00;101236.66;6338053;22;20048;-47
2021/10/08 11:57:10;;;;;;;6.28;1.95;;;;;;;18.88;100.00;101240.31;6338081;22;20022;-47
2021/10/08 12:00:14;;;;;;;4.32;1.58;;;;;;;18.90;100.00;101232.91;6338162;22;20021;-48
2021/10/08 12:03:20;;;;;;;8.38;1.13;;;;;;;18.93;100.00;101233.94;6338094;22;20083;-47
2021/10/08 12:06:28;;;;;;;5.80;1.83;;;;;;;19.03;100.00;101235.31;6318676;22;20022;-47
2021/10/08 12:09:31;;;;;;;7.43;2.08;;;;;;;19.02;100.00;101228.09;6337852;22;20046;-49
2021/10/08 12:12:34;;;;;;;7.78;2.10;;;;;;;18.96;100.00;101230.13;6337585;22;20461;-49
2021/10/08 12:15:37;;;;;;;10.32;2.53;;;;;;;18.96;100.00;101234.97;6337807;22;20421;-49
2021/10/08 12:18:51;;;;;;;8.98;2.10;;;;;;;19.07;100.00;101227.38;6337843;22;20029;-49
2021/10/08 12:21:54;;;;;;;9.02;2.10;;;;;;;19.17;100.00;101231.56;6337919;22;20038;-49
2021/10/08 12:25:06;;;;;;;9.32;2.13;;;;;;;19.16;100.00;101221.56;6319663;22;20025;-49
2021/10/08 12:28:10;;;;;;;4.78;1.42;;;;;;;19.18;100.00;101218.22;6337769;22;20026;-49
2021/10/08 12:31:13;;;;;;;7.97;2.38;;;;;;;19.16;100.00;101232.06;6338092;22;20505;-48
2021/10/08 12:34:36;;;;;;;5.82;2.40;;;;;;;19.18;100.00;101235.16;6338074;22;20396;-49
2021/10/08 12:37:42;;;;;;;9.93;2.58;;;;;;;19.12;100.00;101225.88;6338134;22;20094;-49
2021/10/08 12:40:45;;;;;;;8.00;2.97;;;;;;;18.96;100.00;101230.13;6337698;22;20099;-49
2021/10/08 12:43:48;;;;;;;10.55;2.58;;;;;;;18.95;100.00;101222.91;6337734;22;20029;-50
2021/10/08 12:47:18;;;;;;;12.45;3.60;;;;;;;18.87;100.00;101227.47;6339804;22;20028;-48
2021/10/08 12:50:24;;;;;;;10.05;2.42;;;;;;;19.04;100.00;101230.41;6339885;22;20114;-49
2021/10/08 12:53:27;;;;;;;8.38;2.33;;;;;;;18.96;100.00;101226.50;6320090;22;20087;-49
2021/10/08 12:56:29;;;;;;;8.85;2.75;;;;;;;18.99;100.00;101223.47;6339851;22;20068;-48
2021/10/08 12:59:50;;;;;;;5.05;2.15;;;;;;;19.14;100.00;101220.50;6320626;22;20033;-48
2021/10/08 13:02:53;;;;;;;9.75;2.38;;;;;;;19.08;100.00;101220.44;6340157;22;20134;-49
2021/10/08 13:05:56;;;;;;;4.75;1.52;;;;;;;19.11;100.00;101219.47;6339920;22;20037;-49
2021/10/08 13:09:04;;;;;;;6.00;2.33;;;;;;;19.12;100.00;101215.38;6339429;22;20026;-49
2021/10/08 13:12:07;;;;;;;3.92;1.15;;;;;;;19.11;100.00;101213.81;6339290;22;20320;-49
2021/10/08 13:15:13;;;;;;;6.22;1.65;;;;;;;19.11;100.00;101213.81;6320573;22;20037;-49
2021/10/08 13:18:17;;;;;;;8.18;2.03;;;;;;;19.23;100.00;101214.69;6320550;22;20072;-49
2021/10/08 13:21:21;;;;;;;4.70;1.02;;;;;;;19.23;100.00;101215.44;6339782;22;20098;-49
2021/10/08 13:24:25;;;;;;;4.38;1.55;;;;;;;19.34;100.00;101214.75;6339836;22;20097;-49
2021/10/08 13:27:31;;;;;;;3.10;1.02;;;;;;;19.48;100.00;101208.97;6339623;22;20076;-49
2021/10/08 13:30:34;;;;;;;3.40;1.38;;;;;;;19.46;100.00;101216.41;6339781;22;20026;-50
2021/10/08 13:33:39;;;;;;;2.80;0.98;;;;;;;19.32;100.00;101212.41;6339507;22;20539;-50
2021/10/08 13:36:43;;;;;;;6.05;0.88;;;;;;;19.35;100.00;101211.44;6339433;22;20094;-49
2021/10/08 13:39:45;;;;;;;17.05;1.58;;;;;;;19.18;100.00;101216.19;6339622;22;20018;-49
2021/10/08 13:42:49;;;;;;;5.07;1.75;;;;;;;19.27;100.00;101210.34;6339561;22;20030;-50
2021/10/08 13:45:52;;;;;;;7.85;1.27;;;;;;;19.34;100.00;101203.47;6339646;22;20071;-50
2021/10/08 13:48:55;;;;;;;5.00;1.20;;;;;;;19.54;100.00;101206.94;6339794;22;20021;-50
2021/10/08 13:52:00;;;;;;;10.50;1.42;;;;;;;19.65;100.00;101206.22;6339657;22;20079;-50
2021/10/08 13:55:04;;;;;;;6.00;0.93;;;;;;;19.71;100.00;101211.94;6339585;22;20375;-50
2021/10/08 13:58:08;;;;;;;2.50;1.17;;;;;;;19.75;100.00;101215.28;6339529;22;20072;-50
2021/10/08 14:01:12;;;;;;;3.83;1.67;;;;;;;19.67;100.00;101212.94;6339204;22;20030;-50
2021/10/08 14:11:07;;;;;;;3.85;1.15;;;;;;;19.84;100.00;101200.94;6339160;22;20021;-49
2021/10/08 14:14:10;;;;;;;6.88;1.42;;;;;;;19.79;100.00;101196.03;6339400;22;20061;-49
2021/10/08 14:17:13;;;;;;;5.55;0.95;;;;;;;19.64;100.00;101194.13;6339155;22;20121;-48